createdAt,value
2022-11-13T00:04:51.356Z,40.8
2022-11-13T00:10:16.152Z,40.7
2022-11-13T00:15:27.767Z,40.7
2022-11-13T00:21:07.062Z,40.7
2022-11-13T00:26:13.484Z,40.6
2022-11-13T00:31:42.442Z,40.6
2022-11-13T00:38:11.081Z,40.6
2022-11-13T00:43:39.140Z,40.6
2022-11-13T00:49:01.063Z,40.5
2022-11-13T00:54:25.199Z,40.4
2022-11-13T00:59:31.917Z,40.4
2022-11-13T01:04:39.208Z,40.4
2022-11-13T01:10:02.389Z,40.4
2022-11-13T01:15:26.386Z,40.4
2022-11-13T01:20:32.510Z,40.3
2022-11-13T01:25:40.696Z,40.3
2022-11-13T01:31:03.540Z,40.3
2022-11-13T01:36:41.058Z,40.3
2022-11-13T01:42:03.785Z,40.1
2022-11-13T01:47:25.958Z,40.1
2022-11-13T01:52:47.746Z,40.1
2022-11-13T01:58:26.734Z,40
2022-11-13T02:04:05.147Z,40
2022-11-13T02:09:43.121Z,39.9
2022-11-13T02:15:06.881Z,39.9
2022-11-13T02:20:44.695Z,39.9
2022-11-13T02:26:24.164Z,39.8
2022-11-13T02:31:51.947Z,39.8
2022-11-13T02:36:58.523Z,39.8
2022-11-13T02:42:04.165Z,39.8
2022-11-13T02:47:26.910Z,39.8
2022-11-13T02:53:04.951Z,39.7
2022-11-13T02:58:48.531Z,39.6
2022-11-13T03:05:30.909Z,39.6
2022-11-13T03:10:53.407Z,39.6
2022-11-13T03:16:15.367Z,39.6
2022-11-13T03:21:37.998Z,39.5
2022-11-13T03:27:06.216Z,39.5
2022-11-13T03:31:56.902Z,39.4
2022-11-13T03:37:25.537Z,39.4
2022-11-13T03:42:47.551Z,39.4
2022-11-13T03:48:25.363Z,39.3
2022-11-13T03:54:09.688Z,39.3
2022-11-13T03:59:53.143Z,39.3
2022-11-13T04:05:34.107Z,39.3
2022-11-13T04:10:56.350Z,39.3
2022-11-13T04:16:34.478Z,39.2
2022-11-13T04:22:11.845Z,39.1
2022-11-13T04:27:49.412Z,39.1
2022-11-13T04:33:26.817Z,39.1
2022-11-13T04:39:04.893Z,39.1
2022-11-13T04:44:30.197Z,39.1
2022-11-13T04:50:08.227Z,39
2022-11-13T04:55:51.038Z,38.9
2022-11-13T05:01:29.088Z,38.9
2022-11-13T05:06:51.700Z,38.9
2022-11-13T05:12:14.249Z,38.9
2022-11-13T05:17:53.920Z,38.8
2022-11-13T05:23:32.676Z,38.8
2022-11-13T05:29:13.897Z,38.8
2022-11-13T05:34:55.437Z,38.8
2022-11-13T05:40:17.590Z,38.7
2022-11-13T05:45:56.192Z,38.7
2022-11-13T05:51:34.636Z,38.6
2022-11-13T05:57:12.823Z,38.6
2022-11-13T06:02:50.751Z,38.6
2022-11-13T06:08:31.087Z,38.6
2022-11-13T06:14:08.988Z,38.5
2022-11-13T06:19:49.183Z,38.5
2022-11-13T06:25:27.631Z,38.4
2022-11-13T06:30:50.024Z,38.4
2022-11-13T06:36:28.184Z,38.4
2022-11-13T06:41:52.694Z,38.4
2022-11-13T06:47:15.758Z,38.3
2022-11-13T06:52:44.238Z,38.3
2022-11-13T06:58:07.596Z,38.3
2022-11-13T07:03:31.694Z,38.3
2022-11-13T07:08:55.371Z,38.2
2022-11-13T07:14:33.795Z,38.2
2022-11-13T07:20:34.701Z,38.1
2022-11-13T07:26:13.697Z,38.1
2022-11-13T07:31:42.671Z,38
2022-11-13T07:37:20.369Z,37.9
2022-11-13T07:42:27.122Z,37.9
2022-11-13T07:48:17.577Z,37.9
2022-11-13T07:53:48.375Z,37.9
2022-11-13T07:58:59.128Z,37.8
2022-11-13T08:04:23.630Z,37.8
2022-11-13T08:09:47.986Z,37.8
2022-11-13T08:14:39.597Z,37.8
2022-11-13T08:19:49.111Z,37.7
2022-11-13T08:24:58.902Z,37.7
2022-11-13T08:30:10.525Z,37.6
2022-11-13T08:35:52.655Z,37.6
2022-11-13T08:41:30.079Z,37.6
2022-11-13T08:47:07.533Z,37.5
2022-11-13T08:52:36.608Z,37.5
2022-11-13T08:58:19.269Z,37.4
2022-11-13T09:03:57.113Z,37.4
2022-11-13T09:09:40.877Z,37.4
2022-11-13T09:15:24.629Z,37.4
2022-11-13T09:20:55.985Z,37.4
2022-11-13T09:26:25.537Z,37.3
2022-11-13T09:31:52.210Z,37.3
2022-11-13T09:37:14.649Z,37.2
2022-11-13T09:42:44.848Z,37.1
2022-11-13T09:47:58.567Z,37.1
2022-11-13T09:53:26.470Z,37
2022-11-13T09:59:05.689Z,37
2022-11-13T10:05:03.550Z,36.9
2022-11-13T10:10:42.130Z,36.9
2022-11-13T10:16:21.357Z,36.9
2022-11-13T10:21:43.558Z,36.9
2022-11-13T10:27:23.760Z,36.8
2022-11-13T10:33:09.860Z,36.7
2022-11-13T10:38:39.395Z,36.6
2022-11-13T10:44:18.445Z,36.6
2022-11-13T10:50:17.353Z,36.5
2022-11-13T10:55:40.037Z,36.5
2022-11-13T11:01:05.036Z,36.4
2022-11-13T11:06:42.103Z,36.4
2022-11-13T11:12:47.692Z,36.3
2022-11-13T11:18:25.962Z,36.3
2022-11-13T11:24:07.105Z,36.3
2022-11-13T11:29:44.823Z,36.2
2022-11-13T11:35:22.056Z,36.2
2022-11-13T11:40:45.087Z,36
2022-11-13T11:46:22.965Z,35.9
2022-11-13T11:51:52.059Z,35.9
2022-11-13T11:57:31.190Z,35.9
2022-11-13T12:03:09.016Z,35.8
2022-11-13T12:08:32.399Z,35.8
2022-11-13T12:13:54.877Z,35.7
2022-11-13T12:19:33.684Z,35.6
2022-11-13T12:25:11.526Z,35.6
2022-11-13T12:30:54.202Z,35.5
2022-11-13T12:36:36.092Z,35.3
2022-11-13T12:42:16.334Z,35.3
2022-11-13T12:47:39.493Z,35.2
2022-11-13T12:53:08.324Z,35.2
2022-11-13T12:58:20.239Z,35.1
2022-11-13T13:04:30.204Z,35.1
2022-11-13T13:10:08.966Z,35.1
2022-11-13T13:15:35.770Z,35.1
2022-11-13T13:20:44.242Z,35
2022-11-13T13:25:35.913Z,34.9
2022-11-13T13:30:58.183Z,34.9
2022-11-13T13:36:14.185Z,34.9
2022-11-13T13:41:27.783Z,34.9
2022-11-13T13:47:05.995Z,34.9
2022-11-13T13:52:14.474Z,34.8
2022-11-13T13:57:44.311Z,34.8
2022-11-13T14:03:34.128Z,34.8
2022-11-13T14:09:13.265Z,34.8
2022-11-13T14:14:51.857Z,34.7
2022-11-13T14:20:29.346Z,34.7
2022-11-13T14:25:52.942Z,34.7
2022-11-13T14:31:31.014Z,34.6
2022-11-13T14:37:12.562Z,34.5
2022-11-13T14:42:51.253Z,34.4
2022-11-13T14:48:31.064Z,34.3
2022-11-13T14:54:09.704Z,34.3
2022-11-13T15:00:08.880Z,34.3
2022-11-13T15:05:01.217Z,34.3
2022-11-13T15:09:53.401Z,34.3
2022-11-13T15:15:00.579Z,34.2
2022-11-13T15:19:51.773Z,34.1
2022-11-13T15:25:35.989Z,34.2
2022-11-13T15:30:59.577Z,34.1
2022-11-13T15:35:51.500Z,34.1
2022-11-13T15:41:20.621Z,34.1
2022-11-13T15:46:34.488Z,34.1
2022-11-13T15:52:30.339Z,34
2022-11-13T15:57:55.814Z,34
2022-11-13T16:03:23.694Z,33.9
2022-11-13T16:09:10.414Z,33.9
2022-11-13T16:14:40.018Z,33.5
2022-11-13T16:20:07.443Z,33.9
2022-11-13T16:25:46.830Z,34.7
2022-11-13T16:31:56.362Z,35.7
2022-11-13T16:37:18.956Z,36.7
2022-11-13T16:42:47.173Z,37.6
2022-11-13T16:48:26.629Z,38.8
2022-11-13T16:54:05.210Z,39.8
2022-11-13T16:59:43.831Z,40.8
2022-11-13T17:05:14.024Z,41.8
2022-11-13T17:11:22.573Z,42.1
2022-11-13T17:22:23.333Z,42.3
2022-11-13T17:28:02.113Z,42.3
2022-11-13T17:33:24.691Z,42.3
2022-11-13T17:39:04.548Z,42.2
2022-11-13T17:44:34.142Z,42.2
2022-11-13T17:49:41.617Z,42.2
2022-11-13T17:55:26.375Z,42.2
2022-11-13T18:01:07.710Z,42.1
2022-11-13T18:06:18.324Z,42.1
2022-11-13T18:11:58.133Z,42.1
2022-11-13T18:17:22.029Z,42.1
2022-11-13T18:23:19.746Z,42.1
2022-11-13T18:29:03.223Z,42.1
2022-11-13T18:34:41.975Z,42.1
2022-11-13T18:40:22.969Z,42
2022-11-13T18:46:02.087Z,42
2022-11-13T18:51:40.413Z,42
2022-11-13T18:57:03.156Z,41.9
2022-11-13T19:02:45.866Z,41.9
2022-11-13T19:08:56.952Z,41.9
2022-11-13T19:14:35.137Z,41.9
2022-11-13T19:20:03.294Z,41.9
2022-11-13T19:25:44.175Z,41.9
2022-11-13T19:31:21.894Z,41.8
2022-11-13T19:36:44.312Z,41.8
2022-11-13T19:42:25.249Z,41.8
2022-11-13T19:48:03.402Z,41.8
2022-11-13T19:53:26.505Z,41.7
2022-11-13T19:59:08.464Z,41.6
2022-11-13T20:04:31.415Z,41.6
2022-11-13T20:09:55.280Z,41.6
2022-11-13T20:15:01.662Z,41.6
2022-11-13T20:20:40.150Z,41.6
2022-11-13T20:26:03.140Z,41.6
2022-11-13T20:31:45.337Z,41.5
2022-11-13T20:37:23.437Z,41.7
2022-11-13T20:43:06.880Z,42.5
2022-11-13T20:48:45.536Z,43.6
2022-11-13T20:54:27.008Z,44.6
2022-11-13T20:59:54.612Z,45.6
2022-11-13T21:05:37.157Z,46.6
2022-11-13T21:11:15.034Z,47.6
2022-11-13T21:16:53.521Z,48
2022-11-13T21:22:32.615Z,48.1
2022-11-13T21:28:09.881Z,48.1
2022-11-13T21:33:54.936Z,48.1
2022-11-13T21:39:38.032Z,48.1
2022-11-13T21:45:16.058Z,48.1
2022-11-13T21:50:54.155Z,48
2022-11-13T21:56:32.679Z,48
2022-11-13T22:02:13.427Z,48
2022-11-13T22:07:51.925Z,47.9
2022-11-13T22:13:32.126Z,47.9
2022-11-13T22:19:09.742Z,47.9
2022-11-13T22:24:51.929Z,47.9
2022-11-13T22:30:30.010Z,47.9
2022-11-13T22:36:07.929Z,47.8
2022-11-13T22:41:45.783Z,47.8
2022-11-13T22:47:58.435Z,47.8
2022-11-13T22:53:36.470Z,47.8
2022-11-13T22:59:14.754Z,47.8
2022-11-13T23:04:27.927Z,47.7
2022-11-13T23:10:07.409Z,47.7
2022-11-13T23:15:30.333Z,47.6
2022-11-13T23:20:58.551Z,47.6
2022-11-13T23:26:36.808Z,47.6
2022-11-13T23:32:03.484Z,47.6
2022-11-13T23:38:07.006Z,47.5
2022-11-13T23:44:25.942Z,47.5
2022-11-13T23:50:04.026Z,47.4
2022-11-13T23:55:42.034Z,47.4
